CheckWX is a tool to help pilots better visualize weather data.  It is not intended as a substitute for an official pre-flight weather briefing.

22:07:17 UTC

OEBA METAR
Al Baha Airport
Saudi Arabia
Current

1 hour ago

OEBA 202100Z 04006KT CAVOK 30/04 Q1017 NOSIG
Observed
Jul-20 @ 21:00 UTC
Wind
  • 040° at 6 KTS
Visibility
10,000+ meters
Flight Rules
VFR
Cloud Levels
  • Clear skies
Temperature
30°C / 86°F
Dewpoint
C / 39°F
Humidity
19%
Altimeter
30.03" Hg
Pressure
1016.92 hPa
Previous

2 hours ago

OEBA 202000Z 03014KT CAVOK 30/05 Q1017 NOSIG
Observed
Jul-20 @ 20:00 UTC
Wind
  • 030° at 14 KTS
Visibility
10,000+ meters
Flight Rules
VFR
Cloud Levels
  • Clear skies
Temperature
30°C / 86°F
Dewpoint
C / 41°F
Humidity
20%
Altimeter
30.03" Hg
Pressure
1016.92 hPa
Previous

3 hours ago

OEBA 201900Z 04010KT CAVOK 31/05 Q1017 NOSIG
Observed
Jul-20 @ 19:00 UTC
Wind
  • 040° at 10 KTS
Visibility
10,000+ meters
Flight Rules
VFR
Cloud Levels
  • Clear skies
Temperature
31°C / 88°F
Dewpoint
C / 41°F
Humidity
19%
Altimeter
30.03" Hg
Pressure
1016.92 hPa